sensor_id;sensor_type;location;lat;lon;timestamp;P1;durP1;ratioP1;P2;durP2;ratioP2
58553;SDS011;48119;53.218;6.576;2023-03-12T00:00:43;5.03;;;2.08;;
58553;SDS011;48119;53.218;6.576;2023-03-12T00:03:09;12.05;;;3.35;;
58553;SDS011;48119;53.218;6.576;2023-03-12T00:05:38;6.32;;;2.30;;
58553;SDS011;48119;53.218;6.576;2023-03-12T00:08:05;5.65;;;2.50;;
58553;SDS011;48119;53.218;6.576;2023-03-12T00:10:31;8.00;;;2.53;;
58553;SDS011;48119;53.218;6.576;2023-03-12T00:12:58;5.95;;;2.33;;
58553;SDS011;48119;53.218;6.576;2023-03-12T00:15:24;8.80;;;2.72;;
58553;SDS011;48119;53.218;6.576;2023-03-12T00:17:49;5.97;;;2.88;;
58553;SDS011;48119;53.218;6.576;2023-03-12T00:20:15;6.32;;;3.08;;
58553;SDS011;48119;53.218;6.576;2023-03-12T00:22:41;5.45;;;2.40;;
58553;SDS011;48119;53.218;6.576;2023-03-12T00:25:10;5.28;;;2.72;;
58553;SDS011;48119;53.218;6.576;2023-03-12T00:27:37;6.78;;;2.25;;
58553;SDS011;48119;53.218;6.576;2023-03-12T00:30:04;4.85;;;2.35;;
58553;SDS011;48119;53.218;6.576;2023-03-12T00:32:34;7.55;;;2.90;;
58553;SDS011;48119;53.218;6.576;2023-03-12T00:34:59;4.28;;;2.25;;
58553;SDS011;48119;53.218;6.576;2023-03-12T00:37:25;6.97;;;2.45;;
58553;SDS011;48119;53.218;6.576;2023-03-12T00:39:51;4.80;;;2.47;;
58553;SDS011;48119;53.218;6.576;2023-03-12T00:42:17;5.90;;;2.38;;
58553;SDS011;48119;53.218;6.576;2023-03-12T00:44:44;7.88;;;2.65;;
58553;SDS011;48119;53.218;6.576;2023-03-12T00:47:10;4.30;;;2.13;;
58553;SDS011;48119;53.218;6.576;2023-03-12T00:49:36;5.43;;;2.47;;
58553;SDS011;48119;53.218;6.576;2023-03-12T00:52:02;6.25;;;2.55;;
58553;SDS011;48119;53.218;6.576;2023-03-12T00:54:29;4.45;;;2.03;;
58553;SDS011;48119;53.218;6.576;2023-03-12T00:56:54;4.15;;;2.30;;
58553;SDS011;48119;53.218;6.576;2023-03-12T00:59:20;4.85;;;2.40;;
58553;SDS011;48119;53.218;6.576;2023-03-12T01:01:46;5.25;;;2.30;;
58553;SDS011;48119;53.218;6.576;2023-03-12T01:04:12;5.38;;;2.17;;
58553;SDS011;48119;53.218;6.576;2023-03-12T01:06:38;5.18;;;2.08;;
58553;SDS011;48119;53.218;6.576;2023-03-12T01:09:05;3.85;;;2.20;;
58553;SDS011;48119;53.218;6.576;2023-03-12T01:11:32;5.43;;;2.55;;
58553;SDS011;48119;53.218;6.576;2023-03-12T01:13:58;3.75;;;2.28;;
58553;SDS011;48119;53.218;6.576;2023-03-12T01:16:28;5.03;;;2.40;;
58553;SDS011;48119;53.218;6.576;2023-03-12T01:18:57;5.25;;;2.30;;
58553;SDS011;48119;53.218;6.576;2023-03-12T01:21:25;6.22;;;2.78;;
58553;SDS011;48119;53.218;6.576;2023-03-12T01:23:53;6.20;;;2.28;;
58553;SDS011;48119;53.218;6.576;2023-03-12T01:26:19;9.35;;;2.85;;
58553;SDS011;48119;53.218;6.576;2023-03-12T01:28:45;3.63;;;2.25;;
58553;SDS011;48119;53.218;6.576;2023-03-12T01:31:13;3.28;;;2.13;;
58553;SDS011;48119;53.218;6.576;2023-03-12T01:33:40;5.57;;;2.58;;
58553;SDS011;48119;53.218;6.576;2023-03-12T01:36:19;6.25;;;2.88;;
58553;SDS011;48119;53.218;6.576;2023-03-12T01:38:49;5.07;;;2.70;;
58553;SDS011;48119;53.218;6.576;2023-03-12T01:41:15;5.53;;;2.80;;
58553;SDS011;48119;53.218;6.576;2023-03-12T01:43:41;6.72;;;3.10;;
58553;SDS011;48119;53.218;6.576;2023-03-12T01:54:38;6.35;;;2.47;;
58553;SDS011;48119;53.218;6.576;2023-03-12T01:57:07;6.88;;;2.95;;
58553;SDS011;48119;53.218;6.576;2023-03-12T01:59:44;5.40;;;2.45;;
58553;SDS011;48119;53.218;6.576;2023-03-12T02:02:16;5.47;;;1.92;;
58553;SDS011;48119;53.218;6.576;2023-03-12T02:04:47;4.82;;;2.25;;
58553;SDS011;48119;53.218;6.576;2023-03-12T02:07:15;9.05;;;2.38;;
58553;SDS011;48119;53.218;6.576;2023-03-12T02:09:46;4.10;;;2.40;;
58553;SDS011;48119;53.218;6.576;2023-03-12T02:12:13;5.10;;;2.10;;
58553;SDS011;48119;53.218;6.576;2023-03-12T02:14:40;6.43;;;2.58;;
58553;SDS011;48119;53.218;6.576;2023-03-12T02:17:06;4.55;;;2.60;;
58553;SDS011;48119;53.218;6.576;2023-03-12T02:22:14;4.38;;;2.30;;
58553;SDS011;48119;53.218;6.576;2023-03-12T02:27:09;2.30;;;1.90;;
58553;SDS011;48119;53.218;6.576;2023-03-12T02:29:36;4.82;;;2.55;;
58553;SDS011;48119;53.218;6.576;2023-03-12T02:32:04;6.15;;;2.17;;
58553;SDS011;48119;53.218;6.576;2023-03-12T02:34:32;6.30;;;2.42;;
58553;SDS011;48119;53.218;6.576;2023-03-12T02:36:57;6.97;;;2.42;;
58553;SDS011;48119;53.218;6.576;2023-03-12T02:39:23;9.50;;;2.42;;
58553;SDS011;48119;53.218;6.576;2023-03-12T02:41:55;4.88;;;2.42;;
58553;SDS011;48119;53.218;6.576;2023-03-12T02:44:24;4.97;;;2.10;;
58553;SDS011;48119;53.218;6.576;2023-03-12T02:46:54;7.05;;;2.55;;
58553;SDS011;48119;53.218;6.576;2023-03-12T02:49:22;4.40;;;2.00;;
58553;SDS011;48119;53.218;6.576;2023-03-12T02:51:50;5.65;;;2.28;;
58553;SDS011;48119;53.218;6.576;2023-03-12T02:54:18;6.63;;;2.30;;
58553;SDS011;48119;53.218;6.576;2023-03-12T02:56:44;5.20;;;1.98;;
58553;SDS011;48119;53.218;6.576;2023-03-12T02:59:11;4.40;;;2.45;;
58553;SDS011;48119;53.218;6.576;2023-03-12T03:01:37;4.97;;;2.17;;
58553;SDS011;48119;53.218;6.576;2023-03-12T03:04:04;4.93;;;2.67;;
58553;SDS011;48119;53.218;6.576;2023-03-12T03:06:31;6.22;;;2.20;;
58553;SDS011;48119;53.218;6.576;2023-03-12T03:08:59;4.53;;;2.15;;
58553;SDS011;48119;53.218;6.576;2023-03-12T03:11:25;5.22;;;2.17;;
58553;SDS011;48119;53.218;6.576;2023-03-12T03:13:51;4.30;;;2.10;;
58553;SDS011;48119;53.218;6.576;2023-03-12T03:16:17;4.30;;;2.15;;
58553;SDS011;48119;53.218;6.576;2023-03-12T03:18:43;4.00;;;2.25;;
58553;SDS011;48119;53.218;6.576;2023-03-12T03:21:09;5.43;;;2.22;;
58553;SDS011;48119;53.218;6.576;2023-03-12T03:23:40;4.03;;;2.00;;
58553;SDS011;48119;53.218;6.576;2023-03-12T03:26:06;7.10;;;2.50;;
58553;SDS011;48119;53.218;6.576;2023-03-12T03:28:32;7.78;;;3.20;;
58553;SDS011;48119;53.218;6.576;2023-03-12T03:30:58;6.10;;;2.95;;
58553;SDS011;48119;53.218;6.576;2023-03-12T03:33:26;6.15;;;2.90;;
58553;SDS011;48119;53.218;6.576;2023-03-12T03:35:53;6.53;;;2.85;;
58553;SDS011;48119;53.218;6.576;2023-03-12T03:38:21;4.25;;;3.70;;
58553;SDS011;48119;53.218;6.576;2023-03-12T03:40:47;6.07;;;4.68;;
58553;SDS011;48119;53.218;6.576;2023-03-12T03:43:13;6.68;;;4.72;;
58553;SDS011;48119;53.218;6.576;2023-03-12T03:45:39;4.68;;;3.50;;
58553;SDS011;48119;53.218;6.576;2023-03-12T03:48:05;5.20;;;3.47;;
58553;SDS011;48119;53.218;6.576;2023-03-12T03:50:31;6.47;;;3.00;;
58553;SDS011;48119;53.218;6.576;2023-03-12T03:52:56;3.55;;;2.45;;
58553;SDS011;48119;53.218;6.576;2023-03-12T03:55:22;7.05;;;2.88;;
58553;SDS011;48119;53.218;6.576;2023-03-12T03:57:48;9.40;;;3.58;;
58553;SDS011;48119;53.218;6.576;2023-03-12T04:00:14;5.53;;;2.20;;
58553;SDS011;48119;53.218;6.576;2023-03-12T04:02:42;7.60;;;2.83;;
58553;SDS011;48119;53.218;6.576;2023-03-12T04:05:08;4.55;;;2.80;;
58553;SDS011;48119;53.218;6.576;2023-03-12T04:07:35;5.30;;;2.50;;
58553;SDS011;48119;53.218;6.576;2023-03-12T04:10:01;6.82;;;2.28;;
58553;SDS011;48119;53.218;6.576;2023-03-12T04:12:28;5.03;;;2.70;;
58553;SDS011;48119;53.218;6.576;2023-03-12T04:14:54;5.50;;;2.58;;
58553;SDS011;48119;53.218;6.576;2023-03-12T04:17:20;9.73;;;2.72;;
58553;SDS011;48119;53.218;6.576;2023-03-12T04:19:46;6.43;;;2.65;;
58553;SDS011;48119;53.218;6.576;2023-03-12T04:22:13;4.03;;;2.65;;
58553;SDS011;48119;53.218;6.576;2023-03-12T04:24:38;5.72;;;2.40;;
58553;SDS011;48119;53.218;6.576;2023-03-12T04:27:04;5.35;;;2.78;;
58553;SDS011;48119;53.218;6.576;2023-03-12T04:29:30;9.35;;;3.25;;
58553;SDS011;48119;53.218;6.576;2023-03-12T04:31:56;5.50;;;2.72;;
58553;SDS011;48119;53.218;6.576;2023-03-12T04:34:21;4.47;;;2.30;;
58553;SDS011;48119;53.218;6.576;2023-03-12T04:36:47;5.18;;;2.50;;
58553;SDS011;48119;53.218;6.576;2023-03-12T04:39:17;7.53;;;2.53;;
58553;SDS011;48119;53.218;6.576;2023-03-12T04:41:43;5.05;;;3.08;;
58553;SDS011;48119;53.218;6.576;2023-03-12T04:44:09;6.55;;;2.50;;
58553;SDS011;48119;53.218;6.576;2023-03-12T04:46:36;7.43;;;2.60;;
58553;SDS011;48119;53.218;6.576;2023-03-12T04:49:02;6.75;;;2.90;;
58553;SDS011;48119;53.218;6.576;2023-03-12T04:51:29;10.55;;;2.92;;
58553;SDS011;48119;53.218;6.576;2023-03-12T04:53:56;5.95;;;2.55;;
58553;SDS011;48119;53.218;6.576;2023-03-12T04:56:22;4.70;;;2.70;;
58553;SDS011;48119;53.218;6.576;2023-03-12T04:58:49;3.30;;;2.33;;
58553;SDS011;48119;53.218;6.576;2023-03-12T05:01:18;5.65;;;2.78;;
58553;SDS011;48119;53.218;6.576;2023-03-12T05:03:50;5.57;;;2.90;;
58553;SDS011;48119;53.218;6.576;2023-03-12T05:06:16;6.07;;;2.72;;
58553;SDS011;48119;53.218;6.576;2023-03-12T05:08:42;6.75;;;2.70;;
58553;SDS011;48119;53.218;6.576;2023-03-12T05:11:08;6.45;;;2.80;;
58553;SDS011;48119;53.218;6.576;2023-03-12T05:13:34;4.18;;;2.90;;
58553;SDS011;48119;53.218;6.576;2023-03-12T05:15:59;3.85;;;2.58;;
58553;SDS011;48119;53.218;6.576;2023-03-12T05:18:25;5.95;;;2.50;;
58553;SDS011;48119;53.218;6.576;2023-03-12T05:21:01;4.63;;;2.97;;
58553;SDS011;48119;53.218;6.576;2023-03-12T05:23:35;6.60;;;2.92;;
58553;SDS011;48119;53.218;6.576;2023-03-12T05:26:04;5.85;;;3.35;;
58553;SDS011;48119;53.218;6.576;2023-03-12T05:28:30;9.10;;;3.53;;
58553;SDS011;48119;53.218;6.576;2023-03-12T05:30:57;6.38;;;3.40;;
58553;SDS011;48119;53.218;6.576;2023-03-12T05:33:25;9.82;;;3.75;;
58553;SDS011;48119;53.218;6.576;2023-03-12T05:35:52;5.43;;;2.50;;
58553;SDS011;48119;53.218;6.576;2023-03-12T05:38:18;5.00;;;2.70;;
58553;SDS011;48119;53.218;6.576;2023-03-12T05:40:51;4.28;;;2.42;;
58553;SDS011;48119;53.218;6.576;2023-03-12T05:43:18;4.85;;;2.88;;
58553;SDS011;48119;53.218;6.576;2023-03-12T05:45:44;4.72;;;2.47;;
58553;SDS011;48119;53.218;6.576;2023-03-12T05:48:10;5.47;;;3.35;;
58553;SDS011;48119;53.218;6.576;2023-03-12T05:50:36;7.03;;;2.72;;
58553;SDS011;48119;53.218;6.576;2023-03-12T05:53:02;9.15;;;3.70;;
58553;SDS011;48119;53.218;6.576;2023-03-12T05:55:27;7.18;;;2.78;;
58553;SDS011;48119;53.218;6.576;2023-03-12T05:57:53;5.32;;;2.47;;
58553;SDS011;48119;53.218;6.576;2023-03-12T06:00:19;5.07;;;2.80;;
58553;SDS011;48119;53.218;6.576;2023-03-12T06:02:45;7.10;;;2.92;;
58553;SDS011;48119;53.218;6.576;2023-03-12T06:05:11;10.65;;;3.40;;
58553;SDS011;48119;53.218;6.576;2023-03-12T06:07:36;8.13;;;4.53;;
58553;SDS011;48119;53.218;6.576;2023-03-12T06:10:02;6.00;;;2.80;;
58553;SDS011;48119;53.218;6.576;2023-03-12T06:12:28;8.18;;;3.50;;
58553;SDS011;48119;53.218;6.576;2023-03-12T06:14:56;6.93;;;2.88;;
58553;SDS011;48119;53.218;6.576;2023-03-12T06:17:21;5.53;;;2.83;;
58553;SDS011;48119;53.218;6.576;2023-03-12T06:19:50;5.50;;;3.22;;
58553;SDS011;48119;53.218;6.576;2023-03-12T06:22:17;4.72;;;2.72;;
58553;SDS011;48119;53.218;6.576;2023-03-12T06:24:43;6.07;;;2.92;;
58553;SDS011;48119;53.218;6.576;2023-03-12T06:27:11;7.78;;;3.13;;
58553;SDS011;48119;53.218;6.576;2023-03-12T06:29:38;8.52;;;3.47;;
58553;SDS011;48119;53.218;6.576;2023-03-12T06:32:04;7.75;;;4.40;;
58553;SDS011;48119;53.218;6.576;2023-03-12T06:34:30;6.45;;;3.03;;
58553;SDS011;48119;53.218;6.576;2023-03-12T06:36:56;6.97;;;3.40;;
58553;SDS011;48119;53.218;6.576;2023-03-12T06:39:22;7.60;;;3.45;;
58553;SDS011;48119;53.218;6.576;2023-03-12T06:41:48;7.72;;;3.50;;
58553;SDS011;48119;53.218;6.576;2023-03-12T06:44:14;6.95;;;3.50;;
58553;SDS011;48119;53.218;6.576;2023-03-12T06:46:40;8.43;;;3.63;;
58553;SDS011;48119;53.218;6.576;2023-03-12T06:49:06;8.77;;;3.17;;
58553;SDS011;48119;53.218;6.576;2023-03-12T06:51:31;8.07;;;3.45;;
58553;SDS011;48119;53.218;6.576;2023-03-12T06:54:00;9.50;;;4.07;;
58553;SDS011;48119;53.218;6.576;2023-03-12T06:56:27;5.80;;;2.70;;
58553;SDS011;48119;53.218;6.576;2023-03-12T06:58:53;7.05;;;4.28;;
58553;SDS011;48119;53.218;6.576;2023-03-12T07:01:19;7.40;;;3.60;;
58553;SDS011;48119;53.218;6.576;2023-03-12T07:03:45;8.73;;;4.00;;
58553;SDS011;48119;53.218;6.576;2023-03-12T07:06:12;6.30;;;3.78;;
58553;SDS011;48119;53.218;6.576;2023-03-12T07:08:43;5.72;;;3.60;;
58553;SDS011;48119;53.218;6.576;2023-03-12T07:11:09;7.53;;;3.85;;
58553;SDS011;48119;53.218;6.576;2023-03-12T07:13:35;8.60;;;3.58;;
58553;SDS011;48119;53.218;6.576;2023-03-12T07:16:01;7.57;;;3.72;;
58553;SDS011;48119;53.218;6.576;2023-03-12T07:18:28;9.75;;;4.22;;
58553;SDS011;48119;53.218;6.576;2023-03-12T07:20:54;10.35;;;4.65;;
58553;SDS011;48119;53.218;6.576;2023-03-12T07:23:20;8.90;;;4.43;;
58553;SDS011;48119;53.218;6.576;2023-03-12T07:25:47;7.57;;;3.75;;
58553;SDS011;48119;53.218;6.576;2023-03-12T07:28:13;11.15;;;4.18;;
58553;SDS011;48119;53.218;6.576;2023-03-12T07:30:40;8.55;;;4.13;;
58553;SDS011;48119;53.218;6.576;2023-03-12T07:33:07;9.18;;;4.60;;
58553;SDS011;48119;53.218;6.576;2023-03-12T07:35:35;8.45;;;3.83;;
58553;SDS011;48119;53.218;6.576;2023-03-12T07:38:03;9.55;;;4.10;;
58553;SDS011;48119;53.218;6.576;2023-03-12T07:40:29;11.18;;;5.07;;
58553;SDS011;48119;53.218;6.576;2023-03-12T07:42:55;6.78;;;4.07;;
58553;SDS011;48119;53.218;6.576;2023-03-12T07:45:21;7.88;;;4.00;;
58553;SDS011;48119;53.218;6.576;2023-03-12T07:47:48;10.32;;;5.13;;
58553;SDS011;48119;53.218;6.576;2023-03-12T07:50:14;12.32;;;4.68;;
58553;SDS011;48119;53.218;6.576;2023-03-12T07:52:40;6.13;;;4.43;;
58553;SDS011;48119;53.218;6.576;2023-03-12T07:55:07;9.13;;;4.32;;
58553;SDS011;48119;53.218;6.576;2023-03-12T07:57:33;10.27;;;4.70;;
58553;SDS011;48119;53.218;6.576;2023-03-12T07:59:59;10.50;;;4.57;;
58553;SDS011;48119;53.218;6.576;2023-03-12T08:02:24;6.05;;;4.57;;
58553;SDS011;48119;53.218;6.576;2023-03-12T08:04:50;8.93;;;4.78;;
58553;SDS011;48119;53.218;6.576;2023-03-12T08:07:16;7.68;;;5.05;;
58553;SDS011;48119;53.218;6.576;2023-03-12T08:09:42;7.50;;;4.72;;
58553;SDS011;48119;53.218;6.576;2023-03-12T08:12:08;9.73;;;4.97;;
58553;SDS011;48119;53.218;6.576;2023-03-12T08:14:34;8.55;;;5.00;;
58553;SDS011;48119;53.218;6.576;2023-03-12T08:17:00;8.18;;;4.50;;
58553;SDS011;48119;53.218;6.576;2023-03-12T08:19:26;7.10;;;4.32;;
58553;SDS011;48119;53.218;6.576;2023-03-12T08:21:52;7.43;;;4.28;;
58553;SDS011;48119;53.218;6.576;2023-03-12T08:24:19;6.50;;;4.82;;
58553;SDS011;48119;53.218;6.576;2023-03-12T08:26:45;9.38;;;5.05;;
58553;SDS011;48119;53.218;6.576;2023-03-12T08:29:11;9.35;;;5.03;;
58553;SDS011;48119;53.218;6.576;2023-03-12T08:31:37;10.88;;;5.68;;
58553;SDS011;48119;53.218;6.576;2023-03-12T08:34:03;7.57;;;5.15;;
58553;SDS011;48119;53.218;6.576;2023-03-12T08:36:29;8.02;;;5.20;;
58553;SDS011;48119;53.218;6.576;2023-03-12T08:38:55;8.05;;;5.57;;
58553;SDS011;48119;53.218;6.576;2023-03-12T08:41:20;8.55;;;5.32;;
58553;SDS011;48119;53.218;6.576;2023-03-12T08:43:46;8.57;;;5.22;;
58553;SDS011;48119;53.218;6.576;2023-03-12T08:46:12;8.02;;;4.95;;
58553;SDS011;48119;53.218;6.576;2023-03-12T08:48:38;6.90;;;4.65;;
58553;SDS011;48119;53.218;6.576;2023-03-12T08:51:05;7.03;;;4.75;;
58553;SDS011;48119;53.218;6.576;2023-03-12T08:53:32;5.85;;;4.05;;
58553;SDS011;48119;53.218;6.576;2023-03-12T08:55:59;6.32;;;5.05;;
58553;SDS011;48119;53.218;6.576;2023-03-12T08:58:26;7.25;;;4.20;;
58553;SDS011;48119;53.218;6.576;2023-03-12T09:00:52;5.80;;;4.15;;
58553;SDS011;48119;53.218;6.576;2023-03-12T09:03:19;9.88;;;5.53;;
58553;SDS011;48119;53.218;6.576;2023-03-12T09:05:45;7.93;;;4.38;;
58553;SDS011;48119;53.218;6.576;2023-03-12T09:08:12;10.27;;;4.35;;
58553;SDS011;48119;53.218;6.576;2023-03-12T09:10:39;9.18;;;4.63;;
58553;SDS011;48119;53.218;6.576;2023-03-12T09:13:05;6.45;;;3.67;;
58553;SDS011;48119;53.218;6.576;2023-03-12T09:15:32;7.72;;;4.40;;
58553;SDS011;48119;53.218;6.576;2023-03-12T09:17:58;7.40;;;4.50;;
58553;SDS011;48119;53.218;6.576;2023-03-12T09:20:24;8.18;;;4.22;;
58553;SDS011;48119;53.218;6.576;2023-03-12T09:22:50;6.50;;;3.95;;
58553;SDS011;48119;53.218;6.576;2023-03-12T09:25:16;9.32;;;4.07;;
58553;SDS011;48119;53.218;6.576;2023-03-12T09:27:43;9.75;;;4.28;;
58553;SDS011;48119;53.218;6.576;2023-03-12T09:30:12;5.88;;;3.92;;
58553;SDS011;48119;53.218;6.576;2023-03-12T09:32:40;5.20;;;3.50;;
58553;SDS011;48119;53.218;6.576;2023-03-12T09:35:06;6.10;;;3.38;;
58553;SDS011;48119;53.218;6.576;2023-03-12T09:37:33;5.40;;;3.10;;
58553;SDS011;48119;53.218;6.576;2023-03-12T09:39:59;6.95;;;3.33;;
58553;SDS011;48119;53.218;6.576;2023-03-12T09:44:57;6.53;;;3.42;;
58553;SDS011;48119;53.218;6.576;2023-03-12T09:47:39;8.05;;;4.32;;
58553;SDS011;48119;53.218;6.576;2023-03-12T09:52:43;5.45;;;3.85;;
58553;SDS011;48119;53.218;6.576;2023-03-12T09:55:32;6.00;;;4.20;;
58553;SDS011;48119;53.218;6.576;2023-03-12T09:58:01;4.55;;;3.70;;
58553;SDS011;48119;53.218;6.576;2023-03-12T10:00:32;5.63;;;3.50;;
58553;SDS011;48119;53.218;6.576;2023-03-12T10:11:34;7.13;;;4.55;;
58553;SDS011;48119;53.218;6.576;2023-03-12T10:17:27;6.13;;;4.30;;
58553;SDS011;48119;53.218;6.576;2023-03-12T10:26:21;4.65;;;3.75;;
58553;SDS011;48119;53.218;6.576;2023-03-12T10:29:01;5.40;;;4.43;;
58553;SDS011;48119;53.218;6.576;2023-03-12T10:31:35;7.35;;;4.60;;
58553;SDS011;48119;53.218;6.576;2023-03-12T10:34:13;5.25;;;4.13;;
58553;SDS011;48119;53.218;6.576;2023-03-12T10:36:43;4.95;;;3.70;;
58553;SDS011;48119;53.218;6.576;2023-03-12T10:39:13;7.53;;;4.22;;
58553;SDS011;48119;53.218;6.576;2023-03-12T10:41:44;5.30;;;4.07;;
58553;SDS011;48119;53.218;6.576;2023-03-12T10:44:17;7.00;;;4.88;;
58553;SDS011;48119;53.218;6.576;2023-03-12T10:49:29;5.80;;;3.58;;
58553;SDS011;48119;53.218;6.576;2023-03-12T10:54:37;7.32;;;4.30;;
58553;SDS011;48119;53.218;6.576;2023-03-12T10:57:05;5.03;;;3.92;;
58553;SDS011;48119;53.218;6.576;2023-03-12T10:59:38;4.28;;;3.85;;
58553;SDS011;48119;53.218;6.576;2023-03-12T11:05:21;6.95;;;4.18;;
58553;SDS011;48119;53.218;6.576;2023-03-12T11:07:50;7.00;;;4.93;;
58553;SDS011;48119;53.218;6.576;2023-03-12T11:10:18;6.95;;;4.90;;
58553;SDS011;48119;53.218;6.576;2023-03-12T11:12:53;4.90;;;3.72;;
58553;SDS011;48119;53.218;6.576;2023-03-12T11:23:33;5.85;;;4.75;;
58553;SDS011;48119;53.218;6.576;2023-03-12T11:26:03;9.88;;;4.70;;
58553;SDS011;48119;53.218;6.576;2023-03-12T11:28:42;8.10;;;4.15;;
58553;SDS011;48119;53.218;6.576;2023-03-12T11:31:30;9.20;;;4.32;;
58553;SDS011;48119;53.218;6.576;2023-03-12T11:34:02;9.50;;;5.35;;
58553;SDS011;48119;53.218;6.576;2023-03-12T11:36:38;6.28;;;4.47;;
58553;SDS011;48119;53.218;6.576;2023-03-12T11:44:57;6.75;;;4.78;;
58553;SDS011;48119;53.218;6.576;2023-03-12T11:52:52;7.97;;;5.10;;
58553;SDS011;48119;53.218;6.576;2023-03-12T12:03:38;6.05;;;4.63;;
58553;SDS011;48119;53.218;6.576;2023-03-12T12:11:40;6.55;;;5.00;;
58553;SDS011;48119;53.218;6.576;2023-03-12T12:16:58;6.38;;;5.07;;
58553;SDS011;48119;53.218;6.576;2023-03-12T12:25:11;8.30;;;5.63;;
58553;SDS011;48119;53.218;6.576;2023-03-12T12:27:49;9.75;;;5.32;;
58553;SDS011;48119;53.218;6.576;2023-03-12T12:36:06;9.90;;;5.40;;
58553;SDS011;48119;53.218;6.576;2023-03-12T12:38:41;7.97;;;5.40;;
58553;SDS011;48119;53.218;6.576;2023-03-12T12:41:17;10.05;;;5.45;;
58553;SDS011;48119;53.218;6.576;2023-03-12T12:43:47;7.53;;;5.13;;
58553;SDS011;48119;53.218;6.576;2023-03-12T12:46:34;7.80;;;5.80;;
58553;SDS011;48119;53.218;6.576;2023-03-12T12:49:11;8.82;;;6.00;;
58553;SDS011;48119;53.218;6.576;2023-03-12T12:51:39;7.65;;;5.68;;
58553;SDS011;48119;53.218;6.576;2023-03-12T12:54:26;8.02;;;5.47;;
58553;SDS011;48119;53.218;6.576;2023-03-12T12:57:10;8.05;;;6.10;;
58553;SDS011;48119;53.218;6.576;2023-03-12T12:59:42;10.02;;;6.07;;
58553;SDS011;48119;53.218;6.576;2023-03-12T13:02:20;7.97;;;5.38;;
58553;SDS011;48119;53.218;6.576;2023-03-12T13:04:56;8.38;;;5.80;;
58553;SDS011;48119;53.218;6.576;2023-03-12T13:09:50;8.05;;;6.40;;
58553;SDS011;48119;53.218;6.576;2023-03-12T13:14:49;8.57;;;5.95;;
58553;SDS011;48119;53.218;6.576;2023-03-12T13:17:34;9.32;;;5.53;;
58553;SDS011;48119;53.218;6.576;2023-03-12T13:20:21;11.80;;;6.22;;
58553;SDS011;48119;53.218;6.576;2023-03-12T13:33:49;13.18;;;7.57;;
58553;SDS011;48119;53.218;6.576;2023-03-12T13:41:40;15.77;;;7.82;;
58553;SDS011;48119;53.218;6.576;2023-03-12T13:52:22;14.48;;;6.38;;
58553;SDS011;48119;53.218;6.576;2023-03-12T14:03:02;16.20;;;5.97;;
58553;SDS011;48119;53.218;6.576;2023-03-12T14:08:29;15.82;;;6.53;;
58553;SDS011;48119;53.218;6.576;2023-03-12T14:19:16;20.83;;;6.07;;
58553;SDS011;48119;53.218;6.576;2023-03-12T14:21:47;18.25;;;5.68;;
58553;SDS011;48119;53.218;6.576;2023-03-12T14:24:37;23.55;;;7.60;;
58553;SDS011;48119;53.218;6.576;2023-03-12T14:27:04;17.42;;;7.25;;
58553;SDS011;48119;53.218;6.576;2023-03-12T14:29:36;13.93;;;6.32;;
58553;SDS011;48119;53.218;6.576;2023-03-12T14:32:12;17.27;;;6.85;;
58553;SDS011;48119;53.218;6.576;2023-03-12T14:34:42;17.60;;;6.70;;
58553;SDS011;48119;53.218;6.576;2023-03-12T14:39:54;20.55;;;7.20;;
58553;SDS011;48119;53.218;6.576;2023-03-12T14:42:31;24.38;;;6.13;;
58553;SDS011;48119;53.218;6.576;2023-03-12T14:44:59;25.73;;;6.30;;
58553;SDS011;48119;53.218;6.576;2023-03-12T14:47:44;22.67;;;5.30;;
58553;SDS011;48119;53.218;6.576;2023-03-12T14:52:48;21.73;;;7.75;;
58553;SDS011;48119;53.218;6.576;2023-03-12T14:55:15;27.52;;;7.20;;
58553;SDS011;48119;53.218;6.576;2023-03-12T14:57:46;24.95;;;6.45;;
58553;SDS011;48119;53.218;6.576;2023-03-12T15:00:22;32.40;;;7.22;;
58553;SDS011;48119;53.218;6.576;2023-03-12T15:02:51;18.58;;;6.15;;
58553;SDS011;48119;53.218;6.576;2023-03-12T15:05:18;23.42;;;6.97;;
58553;SDS011;48119;53.218;6.576;2023-03-12T15:07:46;18.13;;;6.40;;
58553;SDS011;48119;53.218;6.576;2023-03-12T15:10:23;30.13;;;6.90;;
58553;SDS011;48119;53.218;6.576;2023-03-12T15:12:51;27.05;;;6.43;;
58553;SDS011;48119;53.218;6.576;2023-03-12T15:18:01;24.05;;;6.82;;
58553;SDS011;48119;53.218;6.576;2023-03-12T15:20:31;20.05;;;7.22;;
58553;SDS011;48119;53.218;6.576;2023-03-12T15:22:59;27.58;;;7.57;;
58553;SDS011;48119;53.218;6.576;2023-03-12T15:25:26;28.90;;;7.28;;
58553;SDS011;48119;53.218;6.576;2023-03-12T15:28:01;26.05;;;7.15;;
58553;SDS011;48119;53.218;6.576;2023-03-12T15:30:32;19.10;;;7.00;;
58553;SDS011;48119;53.218;6.576;2023-03-12T15:33:32;25.67;;;7.90;;
58553;SDS011;48119;53.218;6.576;2023-03-12T15:36:02;31.45;;;8.13;;
58553;SDS011;48119;53.218;6.576;2023-03-12T15:41:35;23.50;;;7.63;;
58553;SDS011;48119;53.218;6.576;2023-03-12T15:44:11;36.28;;;7.75;;
58553;SDS011;48119;53.218;6.576;2023-03-12T15:46:45;26.08;;;7.10;;
58553;SDS011;48119;53.218;6.576;2023-03-12T15:49:22;33.78;;;7.60;;
58553;SDS011;48119;53.218;6.576;2023-03-12T15:54:25;28.60;;;7.97;;
58553;SDS011;48119;53.218;6.576;2023-03-12T15:56:53;22.88;;;6.28;;
58553;SDS011;48119;53.218;6.576;2023-03-12T15:59:35;32.15;;;8.20;;
58553;SDS011;48119;53.218;6.576;2023-03-12T16:02:01;32.97;;;6.30;;
58553;SDS011;48119;53.218;6.576;2023-03-12T16:04:27;28.63;;;9.82;;
58553;SDS011;48119;53.218;6.576;2023-03-12T16:06:52;32.47;;;8.50;;
58553;SDS011;48119;53.218;6.576;2023-03-12T16:09:20;29.02;;;7.20;;
58553;SDS011;48119;53.218;6.576;2023-03-12T16:11:48;25.95;;;7.45;;
58553;SDS011;48119;53.218;6.576;2023-03-12T16:14:22;35.40;;;8.45;;
58553;SDS011;48119;53.218;6.576;2023-03-12T16:16:53;36.75;;;7.88;;
58553;SDS011;48119;53.218;6.576;2023-03-12T16:19:20;26.05;;;7.40;;
58553;SDS011;48119;53.218;6.576;2023-03-12T16:21:46;32.90;;;8.55;;
58553;SDS011;48119;53.218;6.576;2023-03-12T16:24:12;33.22;;;8.38;;
58553;SDS011;48119;53.218;6.576;2023-03-12T16:26:47;32.63;;;7.78;;
58553;SDS011;48119;53.218;6.576;2023-03-12T16:29:17;21.42;;;6.93;;
58553;SDS011;48119;53.218;6.576;2023-03-12T16:31:47;30.05;;;7.47;;
58553;SDS011;48119;53.218;6.576;2023-03-12T16:34:21;28.08;;;7.85;;
58553;SDS011;48119;53.218;6.576;2023-03-12T16:36:47;22.80;;;7.10;;
58553;SDS011;48119;53.218;6.576;2023-03-12T16:39:13;25.58;;;8.05;;
58553;SDS011;48119;53.218;6.576;2023-03-12T16:41:39;31.75;;;8.32;;
58553;SDS011;48119;53.218;6.576;2023-03-12T16:44:05;32.10;;;8.70;;
58553;SDS011;48119;53.218;6.576;2023-03-12T16:46:37;34.25;;;7.80;;
58553;SDS011;48119;53.218;6.576;2023-03-12T16:49:03;28.25;;;7.50;;
58553;SDS011;48119;53.218;6.576;2023-03-12T16:51:28;32.03;;;8.25;;
58553;SDS011;48119;53.218;6.576;2023-03-12T16:53:54;26.60;;;6.90;;
58553;SDS011;48119;53.218;6.576;2023-03-12T16:56:21;33.55;;;8.40;;
58553;SDS011;48119;53.218;6.576;2023-03-12T16:58:48;28.67;;;8.52;;
58553;SDS011;48119;53.218;6.576;2023-03-12T17:01:15;36.58;;;7.90;;
58553;SDS011;48119;53.218;6.576;2023-03-12T17:03:44;38.50;;;8.35;;
58553;SDS011;48119;53.218;6.576;2023-03-12T17:06:23;29.85;;;7.63;;
58553;SDS011;48119;53.218;6.576;2023-03-12T17:08:50;41.53;;;8.70;;
58553;SDS011;48119;53.218;6.576;2023-03-12T17:11:21;26.98;;;7.85;;
58553;SDS011;48119;53.218;6.576;2023-03-12T17:14:01;34.58;;;9.10;;
58553;SDS011;48119;53.218;6.576;2023-03-12T17:16:32;31.20;;;7.30;;
58553;SDS011;48119;53.218;6.576;2023-03-12T17:18:57;31.98;;;8.60;;
58553;SDS011;48119;53.218;6.576;2023-03-12T17:21:23;32.97;;;8.95;;
58553;SDS011;48119;53.218;6.576;2023-03-12T17:23:49;33.20;;;8.02;;
58553;SDS011;48119;53.218;6.576;2023-03-12T17:26:15;28.33;;;7.78;;
58553;SDS011;48119;53.218;6.576;2023-03-12T17:28:45;33.38;;;8.38;;